createdAt,value
2022-09-01T00:00:30.683Z,59.10
2022-09-01T00:02:59.110Z,58.97
2022-09-01T00:05:28.594Z,58.93
2022-09-01T00:07:56.692Z,58.51
2022-09-01T00:10:24.964Z,58.81
2022-09-01T00:12:53.344Z,58.21
2022-09-01T00:15:21.425Z,58.73
2022-09-01T00:17:49.741Z,58.75
2022-09-01T00:20:20.513Z,58.21
2022-09-01T00:22:50.759Z,58.16
2022-09-01T00:25:20.684Z,58.20
2022-09-01T00:27:49.737Z,57.58
2022-09-01T00:30:18.324Z,57.83
2022-09-01T00:32:46.891Z,58.14
2022-09-01T00:35:16.253Z,58.58
2022-09-01T00:37:44.818Z,58.90
2022-09-01T00:40:17.370Z,58.63
2022-09-01T00:42:46.172Z,59.29
2022-09-01T00:45:14.456Z,59.08
2022-09-01T00:47:43.742Z,59.52
2022-09-01T00:50:15.940Z,60.28
2022-09-01T00:52:51.853Z,60.57
2022-09-01T00:55:26.904Z,60.51
2022-09-01T00:57:55.123Z,60.77
2022-09-01T01:00:27.601Z,60.14
2022-09-01T01:02:56.851Z,60.59
2022-09-01T01:05:33.064Z,61.36
2022-09-01T01:08:04.287Z,62.24
2022-09-01T01:10:38.956Z,61.82
2022-09-01T01:13:15.551Z,61.21
2022-09-01T01:15:44.874Z,61.99
2022-09-01T01:18:13.805Z,61.78
2022-09-01T01:21:00.945Z,62.13
2022-09-01T01:23:39.012Z,61.93
2022-09-01T01:26:11.431Z,62.93
2022-09-01T01:28:44.152Z,62.67
2022-09-01T01:31:16.365Z,62.96
2022-09-01T01:33:47.734Z,63.53
2022-09-01T01:36:21.548Z,63.37
2022-09-01T01:38:51.024Z,63.21
2022-09-01T01:41:22.002Z,63.86
2022-09-01T01:43:51.025Z,64.01
2022-09-01T01:46:20.718Z,63.65
2022-09-01T01:48:52.428Z,64.29
2022-09-01T01:51:24.987Z,64.57
2022-09-01T01:53:53.596Z,64.72
2022-09-01T01:56:25.661Z,64.27
2022-09-01T01:58:54.689Z,64.67
2022-09-01T02:01:24.387Z,64.34
2022-09-01T02:03:54.781Z,64.66
2022-09-01T02:06:25.590Z,64.28
2022-09-01T02:08:56.627Z,64.64
2022-09-01T02:11:26.635Z,65.05
2022-09-01T02:13:56.316Z,65.03
2022-09-01T02:16:26.112Z,65.43
2022-09-01T02:18:54.460Z,65.28
2022-09-01T02:21:27.121Z,65.87
2022-09-01T02:24:00.345Z,66.09
2022-09-01T02:26:33.320Z,66.02
2022-09-01T02:29:05.137Z,65.86
2022-09-01T02:31:35.494Z,65.91
2022-09-01T02:34:04.574Z,66.46
2022-09-01T02:36:35.101Z,66.00
2022-09-01T02:39:03.206Z,66.47
2022-09-01T02:41:34.614Z,66.77
2022-09-01T02:44:04.124Z,67.05
2022-09-01T02:46:32.299Z,67.54
2022-09-01T02:49:01.575Z,67.10
2022-09-01T02:51:31.758Z,66.98
2022-09-01T02:54:00.595Z,67.60
2022-09-01T02:56:28.849Z,67.12
2022-09-01T02:59:01.715Z,67.73
2022-09-01T03:01:34.021Z,67.99
2022-09-01T03:04:05.635Z,68.54
2022-09-01T03:06:36.440Z,68.45
2022-09-01T03:09:08.585Z,68.62
2022-09-01T03:11:42.961Z,68.82
2022-09-01T03:14:13.201Z,69.03
2022-09-01T03:16:42.293Z,69.22
2022-09-01T03:19:12.097Z,69.41
2022-09-01T03:21:43.317Z,69.87
2022-09-01T03:24:15.154Z,69.69
2022-09-01T03:26:45.493Z,69.76
2022-09-01T03:29:20.078Z,69.76
2022-09-01T03:31:48.530Z,69.29
2022-09-01T03:34:20.721Z,69.66
2022-09-01T03:36:51.095Z,69.69
2022-09-01T03:39:20.047Z,70.23
2022-09-01T03:41:48.419Z,69.97
2022-09-01T03:44:18.056Z,70.43
2022-09-01T03:46:46.697Z,70.80
2022-09-01T03:49:15.511Z,70.25
2022-09-01T03:51:45.011Z,70.55
2022-09-01T03:54:14.296Z,70.78
2022-09-01T03:56:43.799Z,71.08
2022-09-01T03:59:16.761Z,70.16
2022-09-01T04:01:47.577Z,70.49
2022-09-01T04:04:16.617Z,70.64
2022-09-01T04:06:46.760Z,70.78
2022-09-01T04:09:15.429Z,71.08
2022-09-01T04:11:46.257Z,71.06
2022-09-01T04:14:15.275Z,71.01
2022-09-01T04:17:03.904Z,71.21
2022-09-01T04:19:38.444Z,71.51
2022-09-01T04:22:13.430Z,71.57
2022-09-01T04:24:45.960Z,71.19
2022-09-01T04:27:18.038Z,71.79
2022-09-01T04:29:46.775Z,71.28
2022-09-01T04:32:16.961Z,71.22
2022-09-01T04:34:45.047Z,70.60
2022-09-01T04:37:18.182Z,70.70
2022-09-01T04:39:55.747Z,70.83
2022-09-01T04:42:29.063Z,70.23
2022-09-01T04:44:59.908Z,70.61
2022-09-01T04:47:36.298Z,70.38
2022-09-01T04:50:14.175Z,70.11
2022-09-01T04:52:45.771Z,70.72
2022-09-01T04:55:18.403Z,70.62
2022-09-01T04:57:49.528Z,70.62
2022-09-01T05:00:24.374Z,70.10
2022-09-01T05:03:03.387Z,70.32
2022-09-01T05:05:42.462Z,69.65
2022-09-01T05:08:14.494Z,70.08
2022-09-01T05:10:56.556Z,69.94
2022-09-01T05:13:27.316Z,69.48
2022-09-01T05:16:04.082Z,68.13
2022-09-01T05:18:34.141Z,68.82
2022-09-01T05:21:11.125Z,69.47
2022-09-01T05:23:40.641Z,69.08
2022-09-01T05:26:16.913Z,68.52
2022-09-01T05:28:45.668Z,68.72
2022-09-01T05:31:14.005Z,68.23
2022-09-01T05:33:46.016Z,68.39
2022-09-01T05:36:17.880Z,68.15
2022-09-01T05:38:48.046Z,68.03
2022-09-01T05:41:20.921Z,68.43
2022-09-01T05:43:57.782Z,68.28
2022-09-01T05:46:30.016Z,67.69
2022-09-01T05:48:59.735Z,66.75
2022-09-01T05:51:44.372Z,66.22
2022-09-01T05:54:15.172Z,66.51
2022-09-01T05:56:44.888Z,65.53
2022-09-01T05:59:23.071Z,65.45
2022-09-01T06:01:53.186Z,64.79
2022-09-01T06:04:25.379Z,62.73
2022-09-01T06:07:05.776Z,62.15
2022-09-01T06:09:39.394Z,61.50
2022-09-01T06:12:09.133Z,61.67
2022-09-01T06:14:37.398Z,60.94
2022-09-01T06:17:06.662Z,60.60
2022-09-01T06:19:37.383Z,59.98
2022-09-01T06:22:07.988Z,59.79
2022-09-01T06:24:36.824Z,59.04
2022-09-01T06:27:09.746Z,58.48
2022-09-01T06:29:39.712Z,58.66
2022-09-01T06:32:10.466Z,57.91
2022-09-01T06:34:44.535Z,58.21
2022-09-01T06:37:13.248Z,57.49
2022-09-01T06:39:41.570Z,57.16
2022-09-01T06:42:13.748Z,57.17
2022-09-01T06:44:41.867Z,57.08
2022-09-01T06:47:10.894Z,55.59
2022-09-01T06:49:41.087Z,55.30
2022-09-01T06:52:09.565Z,54.12
2022-09-01T06:54:39.568Z,52.29
2022-09-01T06:59:56.176Z,52.66
2022-09-01T07:02:27.189Z,52.25
2022-09-01T07:04:57.219Z,51.83
2022-09-01T07:10:21.212Z,51.61
2022-09-01T07:13:06.623Z,51.30
2022-09-01T07:18:27.686Z,51.95
2022-09-01T07:24:07.835Z,52.56
2022-09-01T07:26:36.167Z,54.01
2022-09-01T07:29:07.371Z,54.69
2022-09-01T07:34:46.272Z,55.29
2022-09-01T07:38:47.344Z,55.83
2022-09-01T07:45:31.388Z,56.26
2022-09-01T07:48:06.523Z,56.71
2022-09-01T07:51:34.597Z,56.48
2022-09-01T07:53:31.431Z,56.66
2022-09-01T07:56:02.437Z,55.70
2022-09-01T07:58:31.424Z,55.85
2022-09-01T08:01:02.634Z,55.68
2022-09-01T08:03:32.014Z,55.48
2022-09-01T08:06:06.976Z,54.76
2022-09-01T08:08:40.559Z,54.33
2022-09-01T08:11:09.394Z,54.77
2022-09-01T08:13:41.910Z,55.34
2022-09-01T08:16:19.285Z,54.51
2022-09-01T08:18:49.981Z,54.50
2022-09-01T08:21:22.132Z,54.36
2022-09-01T08:23:53.733Z,54.57
2022-09-01T08:26:25.076Z,53.60
2022-09-01T08:28:55.488Z,52.93
2022-09-01T08:31:30.526Z,53.11
2022-09-01T08:34:00.014Z,54.15
2022-09-01T08:36:28.106Z,54.69
2022-09-01T08:38:57.567Z,55.00
2022-09-01T08:41:46.415Z,54.71
2022-09-01T08:44:32.592Z,55.09
2022-09-01T08:47:07.031Z,55.40
2022-09-01T08:49:43.306Z,55.50
2022-09-01T08:52:25.510Z,55.66
2022-09-01T08:55:02.626Z,55.85
2022-09-01T08:57:36.151Z,55.62
2022-09-01T09:00:08.312Z,56.57
2022-09-01T09:02:52.282Z,56.70
2022-09-01T09:05:34.034Z,56.83
2022-09-01T09:08:56.729Z,56.30
2022-09-01T09:12:00.018Z,54.91
2022-09-01T09:14:51.796Z,54.19
2022-09-01T09:17:28.274Z,53.42
2022-09-01T09:19:56.420Z,52.73
2022-09-01T09:22:24.528Z,52.40
2022-09-01T09:25:00.259Z,52.41
2022-09-01T09:27:33.918Z,52.23
2022-09-01T09:30:09.324Z,52.06
2022-09-01T09:33:24.969Z,51.02
2022-09-01T09:35:42.981Z,50.61
2022-09-01T09:38:28.830Z,50.38
2022-09-01T09:41:17.145Z,50.58
2022-09-01T09:44:00.106Z,49.04
2022-09-01T09:46:37.652Z,47.81
2022-09-01T09:49:34.242Z,47.23
2022-09-01T09:52:18.329Z,46.79
2022-09-01T09:55:06.852Z,46.50
2022-09-01T09:57:42.192Z,46.15
2022-09-01T10:00:24.519Z,45.71
2022-09-01T10:03:07.888Z,46.30
2022-09-01T10:05:43.201Z,46.52
2022-09-01T10:08:16.514Z,46.50
2022-09-01T10:10:58.193Z,46.25
2022-09-01T10:13:31.301Z,45.75
2022-09-01T10:16:09.065Z,46.31
2022-09-01T10:18:44.839Z,46.03
2022-09-01T10:21:18.452Z,46.51
2022-09-01T10:23:46.593Z,46.07
2022-09-01T10:26:21.519Z,45.31
2022-09-01T10:28:59.946Z,45.24
2022-09-01T10:31:32.406Z,44.86
2022-09-01T10:34:05.900Z,43.63
2022-09-01T10:36:37.829Z,43.68
2022-09-01T10:39:12.294Z,42.66
2022-09-01T10:42:00.574Z,41.05
2022-09-01T10:44:33.981Z,41.26
2022-09-01T10:47:14.497Z,41.69
2022-09-01T10:50:07.461Z,41.60
2022-09-01T10:53:04.703Z,40.53
2022-09-01T10:55:48.306Z,40.15
2022-09-01T11:02:24.975Z,37.65
2022-09-01T11:05:17.996Z,38.12
2022-09-01T11:08:15.832Z,38.66
2022-09-01T11:11:00.290Z,37.23
2022-09-01T11:13:49.564Z,36.34
2022-09-01T11:16:53.018Z,36.34
2022-09-01T11:19:44.458Z,37.13
2022-09-01T11:22:45.139Z,37.28
2022-09-01T11:25:43.798Z,37.07
2022-09-01T11:28:41.829Z,37.17
2022-09-01T11:31:30.882Z,36.58
2022-09-01T11:34:23.344Z,37.07
2022-09-01T11:37:01.308Z,37.43
2022-09-01T11:39:42.256Z,37.62
2022-09-01T11:42:22.524Z,38.35
2022-09-01T11:44:58.704Z,38.25
2022-09-01T11:47:33.205Z,38.49
2022-09-01T11:50:05.924Z,38.93
2022-09-01T11:52:41.388Z,38.49
2022-09-01T11:55:11.757Z,37.74
2022-09-01T11:57:42.051Z,38.10
2022-09-01T12:00:15.089Z,38.46
2022-09-01T12:02:49.085Z,38.58
2022-09-01T12:05:32.043Z,38.96
2022-09-01T12:08:04.823Z,39.85
2022-09-01T12:10:38.332Z,39.89
2022-09-01T12:13:10.052Z,39.63
2022-09-01T12:16:00.626Z,38.51
2022-09-01T12:18:35.133Z,39.10
2022-09-01T12:21:07.878Z,39.30
2022-09-01T12:23:43.009Z,39.28
2022-09-01T12:26:15.406Z,39.35
2022-09-01T12:28:44.468Z,38.95
2022-09-01T12:31:17.989Z,38.59
2022-09-01T12:33:47.725Z,39.18
2022-09-01T12:36:26.467Z,38.59
2022-09-01T12:38:58.267Z,39.05
2022-09-01T12:41:35.447Z,38.32
2022-09-01T12:44:30.499Z,38.20
2022-09-01T12:47:02.724Z,37.66
2022-09-01T12:49:47.959Z,37.56
2022-09-01T12:52:28.550Z,38.00
2022-09-01T12:58:07.974Z,37.94
2022-09-01T13:00:39.521Z,37.00
2022-09-01T13:03:14.488Z,37.66
2022-09-01T13:05:44.376Z,38.28
2022-09-01T13:08:18.306Z,38.29
2022-09-01T13:10:52.997Z,38.13
2022-09-01T13:13:24.052Z,37.36
2022-09-01T13:15:56.742Z,37.00
2022-09-01T13:18:27.548Z,36.82
2022-09-01T13:20:57.065Z,36.15
2022-09-01T13:23:25.856Z,36.03
2022-09-01T13:25:55.211Z,35.81
2022-09-01T13:36:47.243Z,34.61
2022-09-01T13:39:17.159Z,34.54
2022-09-01T13:41:48.290Z,34.85
2022-09-01T13:44:17.373Z,35.38
2022-09-01T13:47:28.560Z,35.36
2022-09-01T13:49:44.045Z,35.31
2022-09-01T13:52:22.590Z,35.47
2022-09-01T13:54:50.763Z,35.33
2022-09-01T13:57:20.114Z,35.60
2022-09-01T13:59:48.150Z,35.39
2022-09-01T14:02:16.249Z,35.21
2022-09-01T14:04:44.670Z,35.85
2022-09-01T14:07:12.860Z,34.84
2022-09-01T14:09:40.884Z,35.38
2022-09-01T14:12:09.143Z,35.29
2022-09-01T14:17:26.538Z,35.08
2022-09-01T14:19:55.319Z,35.69
2022-09-01T14:22:23.412Z,35.53
2022-09-01T14:24:52.219Z,35.55
2022-09-01T14:27:20.363Z,35.03
2022-09-01T14:29:54.901Z,35.55
2022-09-01T14:32:27.086Z,35.04
2022-09-01T14:34:55.410Z,34.97
2022-09-01T14:37:24.468Z,35.46
2022-09-01T14:39:53.596Z,35.48
2022-09-01T14:42:23.938Z,35.52
2022-09-01T14:44:53.725Z,35.27
2022-09-01T14:47:24.711Z,35.43
2022-09-01T14:49:53.325Z,35.44
2022-09-01T14:52:22.285Z,35.74
2022-09-01T14:54:50.899Z,35.94
2022-09-01T14:57:36.919Z,35.78
2022-09-01T15:00:13.013Z,35.31
2022-09-01T15:02:43.994Z,35.60
2022-09-01T15:05:13.795Z,36.06
2022-09-01T15:07:43.262Z,36.07
2022-09-01T15:10:24.975Z,35.51
2022-09-01T15:12:55.768Z,35.27
2022-09-01T15:15:27.180Z,35.51
2022-09-01T15:17:56.110Z,35.00
2022-09-01T15:20:42.962Z,35.42
2022-09-01T15:23:11.554Z,34.54
2022-09-01T15:25:40.067Z,34.00
2022-09-01T15:28:08.879Z,34.40
2022-09-01T15:30:40.581Z,34.63
2022-09-01T15:33:14.703Z,34.54
2022-09-01T15:35:44.347Z,34.76
2022-09-01T15:38:17.165Z,34.63
2022-09-01T15:40:57.696Z,35.20
2022-09-01T15:43:28.331Z,36.10
2022-09-01T15:45:59.106Z,37.09
2022-09-01T15:48:29.365Z,37.01
2022-09-01T15:51:29.371Z,37.05
2022-09-01T15:54:02.069Z,37.46
2022-09-01T15:56:31.202Z,37.14
2022-09-01T15:59:02.027Z,37.02
2022-09-01T16:01:36.177Z,37.69
2022-09-01T16:04:07.882Z,37.55
2022-09-01T16:06:36.803Z,37.42
2022-09-01T16:09:06.833Z,37.43
2022-09-01T16:11:36.669Z,37.55
2022-09-01T16:14:06.207Z,37.97
2022-09-01T16:16:54.442Z,38.50
2022-09-01T16:19:34.424Z,39.01
2022-09-01T16:22:14.179Z,39.42
2022-09-01T16:24:45.687Z,38.89
2022-09-01T16:27:18.350Z,39.11
2022-09-01T16:29:51.685Z,39.04
2022-09-01T16:32:23.543Z,37.96
2022-09-01T16:34:53.347Z,38.08
2022-09-01T16:37:47.146Z,38.72
2022-09-01T16:40:34.762Z,38.80
2022-09-01T16:43:13.365Z,38.79
2022-09-01T16:45:53.953Z,39.18
2022-09-01T16:48:34.227Z,39.60
2022-09-01T16:51:15.056Z,39.97
2022-09-01T16:54:02.666Z,40.24
2022-09-01T16:56:37.318Z,40.80
2022-09-01T16:59:25.165Z,40.98
2022-09-01T17:02:07.118Z,41.20
2022-09-01T17:04:46.770Z,41.92
2022-09-01T17:07:21.113Z,42.37
2022-09-01T17:10:04.813Z,42.18
2022-09-01T17:12:42.883Z,42.61
2022-09-01T17:15:16.055Z,42.86
2022-09-01T17:17:55.839Z,43.40
2022-09-01T17:20:30.702Z,43.41
2022-09-01T17:23:08.622Z,43.75
2022-09-01T17:25:45.012Z,43.85
2022-09-01T17:28:20.814Z,44.02
2022-09-01T17:31:00.347Z,44.26
2022-09-01T17:33:44.831Z,44.48
2022-09-01T17:36:27.095Z,44.96
2022-09-01T17:39:03.700Z,44.84
2022-09-01T17:41:41.616Z,45.28
2022-09-01T17:44:21.457Z,45.62
2022-09-01T17:47:01.778Z,45.96
2022-09-01T17:49:39.676Z,45.92
2022-09-01T17:52:19.018Z,46.07
2022-09-01T17:54:59.964Z,46.42
2022-09-01T17:57:35.965Z,47.11
2022-09-01T18:00:09.245Z,47.43
2022-09-01T18:03:14.813Z,47.71
2022-09-01T18:05:46.516Z,48.05
2022-09-01T18:08:38.237Z,48.11
2022-09-01T18:11:14.170Z,48.53
2022-09-01T18:13:54.283Z,48.93
2022-09-01T18:16:29.494Z,49.24
2022-09-01T18:19:04.637Z,49.69
2022-09-01T18:21:38.181Z,49.76
2022-09-01T18:24:21.496Z,49.98
2022-09-01T18:26:52.917Z,50.41
2022-09-01T18:29:25.015Z,50.74
2022-09-01T18:32:13.083Z,50.74
2022-09-01T18:35:13.331Z,51.06
2022-09-01T18:38:01.547Z,51.33
2022-09-01T18:40:43.792Z,51.64
2022-09-01T18:43:23.690Z,51.54
2022-09-01T18:46:00.023Z,52.12
2022-09-01T18:48:50.685Z,52.34
2022-09-01T18:51:31.462Z,52.67
2022-09-01T18:54:10.369Z,52.82
2022-09-01T18:56:49.521Z,52.98
2022-09-01T19:00:18.930Z,53.11
2022-09-01T19:03:21.359Z,52.87
2022-09-01T19:06:12.624Z,52.33
2022-09-01T19:09:01.555Z,52.70
2022-09-01T19:11:49.394Z,53.23
2022-09-01T19:14:30.890Z,52.94
2022-09-01T19:17:22.280Z,53.16
2022-09-01T19:19:57.920Z,53.54
2022-09-01T19:22:40.345Z,53.79
2022-09-01T19:25:30.092Z,53.93
2022-09-01T19:28:08.163Z,53.75
2022-09-01T19:30:42.539Z,54.04
2022-09-01T19:33:17.427Z,54.15
2022-09-01T19:35:49.330Z,53.67
2022-09-01T19:38:27.562Z,54.43
2022-09-01T19:41:05.299Z,54.87
2022-09-01T19:43:40.279Z,54.86
2022-09-01T19:46:22.371Z,54.76
2022-09-01T19:49:00.183Z,55.07
2022-09-01T19:51:34.730Z,55.32
2022-09-01T19:54:10.797Z,55.60
2022-09-01T19:56:49.783Z,55.83
2022-09-01T19:59:28.152Z,55.94
2022-09-01T20:02:00.679Z,56.02
2022-09-01T20:04:42.888Z,56.12
2022-09-01T20:07:25.096Z,55.58
2022-09-01T20:10:13.603Z,56.23
2022-09-01T20:12:52.837Z,56.46
2022-09-01T20:15:33.495Z,56.54
2022-09-01T20:18:08.952Z,56.32
2022-09-01T20:20:46.970Z,56.26
2022-09-01T20:23:27.877Z,56.70
2022-09-01T20:26:04.472Z,57.12
2022-09-01T20:28:45.630Z,57.15
2022-09-01T20:31:28.219Z,57.79
2022-09-01T20:34:05.395Z,57.64
2022-09-01T20:36:42.865Z,58.16
2022-09-01T20:39:51.700Z,58.26
2022-09-01T20:42:32.176Z,58.11
2022-09-01T20:45:06.502Z,58.60
2022-09-01T20:47:36.004Z,58.94
2022-09-01T20:50:12.835Z,58.11
2022-09-01T20:52:59.741Z,58.54
2022-09-01T20:55:38.554Z,58.98
2022-09-01T20:58:16.738Z,59.17
2022-09-01T21:01:03.195Z,59.54
2022-09-01T21:03:47.239Z,59.38
2022-09-01T21:06:28.925Z,59.69
2022-09-01T21:09:10.279Z,60.12
2022-09-01T21:11:47.602Z,60.10
2022-09-01T21:14:43.795Z,60.63
2022-09-01T21:17:24.441Z,60.78
2022-09-01T21:20:09.393Z,61.19
2022-09-01T21:22:37.530Z,60.62
2022-09-01T21:25:06.858Z,60.88
2022-09-01T21:27:44.555Z,60.78
2022-09-01T21:30:15.997Z,61.09
2022-09-01T21:32:44.851Z,61.74
2022-09-01T21:35:18.246Z,61.11
2022-09-01T21:37:46.466Z,61.27
2022-09-01T21:40:16.462Z,62.00
2022-09-01T21:42:52.455Z,61.64
2022-09-01T21:45:22.307Z,61.83
2022-09-01T21:47:52.512Z,61.96
2022-09-01T21:50:25.176Z,61.99
2022-09-01T21:52:53.709Z,61.85
2022-09-01T21:55:24.904Z,62.46
2022-09-01T21:57:53.307Z,62.67
2022-09-01T22:00:25.379Z,62.86
2022-09-01T22:02:54.235Z,62.76
2022-09-01T22:05:26.022Z,63.07
2022-09-01T22:07:56.043Z,62.65
2022-09-01T22:10:29.938Z,62.68
2022-09-01T22:13:03.510Z,63.10
2022-09-01T22:15:32.642Z,63.06
2022-09-01T22:18:00.882Z,63.12
2022-09-01T22:20:31.973Z,63.30
2022-09-01T22:23:02.021Z,62.79
2022-09-01T22:25:32.694Z,63.07
2022-09-01T22:28:03.230Z,63.11
2022-09-01T22:30:31.905Z,63.39
2022-09-01T22:33:01.182Z,63.10
2022-09-01T22:35:30.844Z,62.92
2022-09-01T22:37:58.922Z,62.06
2022-09-01T22:40:27.084Z,62.21
2022-09-01T22:42:55.268Z,63.05
2022-09-01T22:45:23.457Z,63.82
2022-09-01T22:47:51.552Z,63.54
2022-09-01T22:50:19.849Z,63.39
2022-09-01T22:52:49.294Z,63.65
2022-09-01T22:55:17.881Z,63.94
2022-09-01T22:57:45.987Z,63.43
2022-09-01T23:00:15.416Z,63.03
2022-09-01T23:02:44.815Z,63.47
2022-09-01T23:05:13.165Z,63.73
2022-09-01T23:07:41.327Z,63.03
2022-09-01T23:10:12.001Z,63.05
2022-09-01T23:12:40.070Z,64.00
2022-09-01T23:15:10.448Z,64.20
2022-09-01T23:17:39.678Z,64.32
2022-09-01T23:20:13.020Z,64.29
2022-09-01T23:22:42.652Z,64.05
2022-09-01T23:25:16.319Z,64.90
2022-09-01T23:27:44.787Z,65.17
2022-09-01T23:30:16.150Z,65.21
2022-09-01T23:32:44.817Z,64.38
2022-09-01T23:35:13.985Z,64.95
2022-09-01T23:37:44.730Z,65.38
2022-09-01T23:40:14.528Z,65.45
2022-09-01T23:42:42.817Z,64.37
2022-09-01T23:45:12.585Z,64.60
2022-09-01T23:47:41.025Z,65.26
2022-09-01T23:50:10.625Z,65.72
2022-09-01T23:52:39.426Z,65.79
2022-09-01T23:55:09.443Z,65.82
2022-09-01T23:57:39.462Z,65.86
